Time;durP1;ratioP1;P1;durP2;ratioP2;P2;SDS_P1;SDS_P2;PMS_P1;PMS_P2;Temp;Humidity;BMP_temperature;BMP_pressure;BME280_temperature;BME280_humidity;BME280_pressure;Samples;Min_cycle;Max_cycle;Signal;HPM_P1;HPM_P2
2024/01/12 00:02:21;;;;;;;0.55;0.55;;;;;;;-1.21;100.00;103256.50;5093579;28;20032;-60
2024/01/12 00:04:46;;;;;;;0.45;0.45;;;;;;;-1.20;100.00;103265.88;5094245;28;20024;-60
2024/01/12 00:07:12;;;;;;;0.50;0.50;;;;;;;-1.18;100.00;103265.34;5093160;28;20509;-60
2024/01/12 00:09:38;;;;;;;0.50;0.50;;;;;;;-1.18;100.00;103261.91;5093816;28;20020;-60
2024/01/12 00:12:03;;;;;;;0.43;0.43;;;;;;;-1.17;100.00;103264.63;5093920;28;20036;-60
2024/01/12 00:14:29;;;;;;;0.50;0.50;;;;;;;-1.19;100.00;103262.63;5092840;28;20032;-60
2024/01/12 00:16:54;;;;;;;0.43;0.43;;;;;;;-1.20;100.00;103260.81;5093635;28;20026;-60
2024/01/12 00:19:19;;;;;;;0.50;0.50;;;;;;;-1.22;100.00;103254.69;5093351;28;20433;-60
2024/01/12 00:21:46;;;;;;;0.50;0.50;;;;;;;-1.22;100.00;103265.72;5093276;28;20430;-60
2024/01/12 00:24:11;;;;;;;0.50;0.50;;;;;;;-1.19;100.00;103255.03;5093449;28;20063;-60
2024/01/12 00:26:36;;;;;;;0.50;0.50;;;;;;;-1.18;100.00;103261.91;5093404;28;20153;-60
2024/01/12 00:29:02;;;;;;;0.40;0.40;;;;;;;-1.21;100.00;103259.03;5093213;28;20107;-60
2024/01/12 00:31:27;;;;;;;0.43;0.43;;;;;;;-1.18;100.00;103266.97;5093117;28;20107;-60
2024/01/12 00:33:52;;;;;;;0.57;0.57;;;;;;;-1.15;100.00;103264.78;5093021;28;20028;-60
2024/01/12 00:36:18;;;;;;;0.50;0.50;;;;;;;-1.16;100.00;103263.00;5093234;28;20120;-60
2024/01/12 00:38:43;;;;;;;0.60;0.60;;;;;;;-1.18;100.00;103264.44;5093415;28;20036;-60
2024/01/12 00:41:08;;;;;;;0.50;0.50;;;;;;;-1.19;100.00;103263.56;5092857;28;20105;-60
2024/01/12 00:43:34;;;;;;;0.50;0.50;;;;;;;-1.21;100.00;103266.63;5093167;28;20103;-60
2024/01/12 00:45:59;;;;;;;0.60;0.60;;;;;;;-1.23;100.00;103265.53;5093231;28;20387;-60
2024/01/12 00:48:25;;;;;;;0.40;0.40;;;;;;;-1.22;100.00;103267.34;5092228;28;20101;-60
2024/01/12 00:50:50;;;;;;;0.50;0.50;;;;;;;-1.25;100.00;103272.03;5093427;28;20020;-60
2024/01/12 00:53:15;;;;;;;0.50;0.50;;;;;;;-1.22;100.00;103263.19;5092965;28;20043;-60
2024/01/12 00:55:41;;;;;;;0.50;0.50;;;;;;;-1.22;100.00;103268.25;5092486;28;20107;-60
2024/01/12 00:58:06;;;;;;;0.50;0.50;;;;;;;-1.21;100.00;103264.09;5092928;28;20048;-60
2024/01/12 01:00:31;;;;;;;0.50;0.50;;;;;;;-1.23;100.00;103256.31;5092907;28;20085;-60
2024/01/12 01:02:57;;;;;;;0.50;0.50;;;;;;;-1.22;100.00;103269.88;5092286;28;20028;-60
2024/01/12 01:05:23;;;;;;;0.50;0.50;;;;;;;-1.23;100.00;103266.44;5092910;28;20020;-60
2024/01/12 01:07:48;;;;;;;0.50;0.50;;;;;;;-1.21;100.00;103267.53;5093105;28;20028;-60
2024/01/12 01:10:13;;;;;;;0.40;0.40;;;;;;;-1.22;100.00;103268.25;5091990;28;20028;-60
2024/01/12 01:12:39;;;;;;;0.50;0.50;;;;;;;-1.19;100.00;103262.63;5093098;28;20023;-60
2024/01/12 01:15:06;;;;;;;0.55;0.55;;;;;;;-1.17;100.00;103276.38;5092835;28;20059;-60
2024/01/12 01:17:32;;;;;;;0.50;0.50;;;;;;;-1.18;100.00;103274.56;5092039;28;20051;-60
2024/01/12 01:19:58;;;;;;;0.50;0.50;;;;;;;-1.22;100.00;103280.00;5093003;28;20109;-60
2024/01/12 01:22:23;;;;;;;0.50;0.50;;;;;;;-1.19;100.00;103283.78;5095344;28;20031;-60
2024/01/12 01:24:49;;;;;;;0.60;0.60;;;;;;;-1.15;100.00;103285.03;5096712;28;20436;-60
2024/01/12 01:27:14;;;;;;;0.50;0.50;;;;;;;-1.15;100.00;103279.97;5096575;28;20028;-60
2024/01/12 01:29:39;;;;;;;0.60;0.60;;;;;;;-1.20;100.00;103287.03;5096762;28;20100;-60
2024/01/12 01:32:05;;;;;;;0.40;0.40;;;;;;;-1.19;100.00;103290.47;5096659;28;20028;-60
2024/01/12 01:34:30;;;;;;;0.50;0.50;;;;;;;-1.22;100.00;103301.13;5096852;28;20016;-60
2024/01/12 01:37:01;;;;;;;0.50;0.50;;;;;;;-1.25;100.00;103302.41;5097201;28;20028;-60
2024/01/12 01:39:27;;;;;;;0.40;0.40;;;;;;;-1.23;100.00;103317.03;5096281;28;20102;-60
2024/01/12 01:41:52;;;;;;;0.50;0.50;;;;;;;-1.22;100.00;103305.31;5096299;28;20064;-60
2024/01/12 01:44:17;;;;;;;0.50;0.50;;;;;;;-1.25;100.00;103309.97;5094715;28;20027;-60
2024/01/12 01:46:43;;;;;;;0.50;0.50;;;;;;;-1.26;100.00;103310.72;5095976;28;20487;-60
2024/01/12 01:49:08;;;;;;;0.47;0.47;;;;;;;-1.23;100.00;103309.44;5096427;28;20028;-60
2024/01/12 01:51:33;;;;;;;0.50;0.50;;;;;;;-1.26;100.00;103306.56;5095574;28;20020;-60
2024/01/12 01:53:59;;;;;;;0.50;0.50;;;;;;;-1.25;100.00;103307.44;5096720;28;20031;-60
2024/01/12 01:56:24;;;;;;;0.50;0.50;;;;;;;-1.24;100.00;103294.09;5096124;28;20024;-60
2024/01/12 01:58:50;;;;;;;0.50;0.50;;;;;;;-1.19;100.00;103303.13;5095736;28;20031;-61
2024/01/12 02:01:17;;;;;;;0.50;0.50;;;;;;;-1.21;100.00;103295.34;5095670;28;20020;-60
2024/01/12 02:03:43;;;;;;;0.45;0.45;;;;;;;-1.20;100.00;103293.72;5096126;28;20112;-60
2024/01/12 02:06:09;;;;;;;0.60;0.60;;;;;;;-1.14;100.00;103302.03;5095405;28;20107;-60
2024/01/12 02:08:34;;;;;;;0.40;0.40;;;;;;;-1.21;100.00;103294.47;5095858;28;20031;-61
2024/01/12 02:11:00;;;;;;;0.50;0.50;;;;;;;-1.19;100.00;103287.94;5095999;28;20024;-60
2024/01/12 02:13:25;;;;;;;0.50;0.50;;;;;;;-1.20;100.00;103286.13;5095065;28;20099;-60
2024/01/12 02:15:50;;;;;;;0.50;0.50;;;;;;;-1.22;100.00;103280.88;5096298;28;20024;-60
2024/01/12 02:18:16;;;;;;;0.47;0.47;;;;;;;-1.22;100.00;103273.31;5095529;28;20062;-60
2024/01/12 02:20:42;;;;;;;0.50;0.50;;;;;;;-1.22;100.00;103274.94;5095476;28;20017;-60
2024/01/12 02:23:07;;;;;;;0.50;0.50;;;;;;;-1.25;100.00;103277.09;5096009;28;20076;-60
2024/01/12 02:25:33;;;;;;;0.43;0.43;;;;;;;-1.26;100.00;103280.38;5095409;28;20464;-60
2024/01/12 02:27:58;;;;;;;0.50;0.50;;;;;;;-1.26;100.00;103285.44;5095300;28;20016;-60
2024/01/12 02:30:23;;;;;;;0.50;0.50;;;;;;;-1.26;100.00;103278.72;5095524;28;20028;-61
2024/01/12 02:32:49;;;;;;;0.50;0.50;;;;;;;-1.25;100.00;103288.13;5095622;28;20085;-60
2024/01/12 02:35:14;;;;;;;0.50;0.50;;;;;;;-1.27;100.00;103279.44;5095020;28;20542;-60
2024/01/12 02:37:39;;;;;;;0.60;0.60;;;;;;;-1.25;100.00;103284.69;5095386;28;20024;-61
2024/01/12 02:40:06;;;;;;;0.50;0.50;;;;;;;-1.25;100.00;103294.81;5095472;28;20092;-61
2024/01/12 02:42:31;;;;;;;0.40;0.40;;;;;;;-1.26;100.00;103293.03;5094708;28;20035;-60
2024/01/12 02:44:57;;;;;;;0.50;0.50;;;;;;;-1.26;100.00;103283.78;5095540;28;20371;-60
2024/01/12 02:47:22;;;;;;;0.50;0.50;;;;;;;-1.27;100.00;103279.44;5094557;28;20027;-60
2024/01/12 02:49:48;;;;;;;0.50;0.50;;;;;;;-1.24;100.00;103277.31;5095648;28;20085;-61
2024/01/12 02:52:13;;;;;;;0.60;0.60;;;;;;;-1.28;100.00;103286.88;5095262;28;20027;-60
2024/01/12 02:54:38;;;;;;;0.45;0.45;;;;;;;-1.27;100.00;103273.50;5094662;28;20024;-60
2024/01/12 02:57:04;;;;;;;0.60;0.60;;;;;;;-1.25;100.00;103272.03;5095257;28;20161;-60
2024/01/12 02:59:29;;;;;;;0.43;0.43;;;;;;;-1.22;100.00;103257.22;5094746;28;20028;-60
2024/01/12 03:01:54;;;;;;;0.50;0.50;;;;;;;-1.21;100.00;103266.63;5094585;28;20035;-60
2024/01/12 03:04:20;;;;;;;0.50;0.50;;;;;;;-1.25;100.00;103266.97;5094328;28;20077;-60
2024/01/12 03:06:45;;;;;;;0.50;0.50;;;;;;;-1.25;100.00;103269.50;5095370;28;20020;-61
2024/01/12 03:09:11;;;;;;;0.40;0.40;;;;;;;-1.27;100.00;103266.81;5093963;28;20028;-61
2024/01/12 03:11:36;;;;;;;0.50;0.50;;;;;;;-1.22;100.00;103267.34;5094969;28;20038;-61
2024/01/12 03:14:01;;;;;;;0.60;0.60;;;;;;;-1.27;100.00;103265.91;5095187;28;20055;-60
2024/01/12 03:16:27;;;;;;;0.50;0.50;;;;;;;-1.26;100.00;103266.09;5094113;28;20024;-60
2024/01/12 03:18:52;;;;;;;0.40;0.40;;;;;;;-1.22;100.00;103262.28;5095058;28;20483;-60
2024/01/12 03:21:18;;;;;;;0.50;0.50;;;;;;;-1.25;100.00;103264.44;5094603;28;20028;-61
2024/01/12 03:23:43;;;;;;;0.47;0.47;;;;;;;-1.25;100.00;103259.38;5094195;28;20024;-60
2024/01/12 03:26:09;;;;;;;0.40;0.40;;;;;;;-1.22;100.00;103262.28;5094952;28;20541;-60
2024/01/12 03:28:34;;;;;;;0.43;0.43;;;;;;;-1.19;100.00;103260.09;5094400;28;20024;-61
2024/01/12 03:31:00;;;;;;;0.50;0.50;;;;;;;-1.21;100.00;103262.47;5094375;28;20103;-61
2024/01/12 03:33:26;;;;;;;0.50;0.50;;;;;;;-1.21;100.00;103254.88;5094498;28;20103;-60
2024/01/12 03:35:51;;;;;;;0.50;0.50;;;;;;;-1.20;100.00;103260.81;5094370;28;20448;-61
2024/01/12 03:38:16;;;;;;;0.50;0.50;;;;;;;-1.25;100.00;103265.38;5093380;28;20472;-61
2024/01/12 03:40:41;;;;;;;0.40;0.40;;;;;;;-1.24;100.00;103261.19;5094338;28;20044;-61
2024/01/12 03:43:07;;;;;;;0.50;0.50;;;;;;;-1.20;100.00;103260.81;5094089;28;20451;-61
2024/01/12 03:45:32;;;;;;;0.60;0.60;;;;;;;-1.22;100.00;103253.06;5091696;28;20032;-61
2024/01/12 03:47:57;;;;;;;0.50;0.50;;;;;;;-1.19;100.00;103247.44;5094200;28;20369;-60
2024/01/12 03:50:23;;;;;;;0.50;0.50;;;;;;;-1.20;100.00;103254.16;5093616;28;20032;-61
2024/01/12 03:52:48;;;;;;;0.60;0.60;;;;;;;-1.21;100.00;103259.03;5093725;28;20509;-61
2024/01/12 03:55:13;;;;;;;0.52;0.52;;;;;;;-1.20;100.00;103246.56;5093929;28;20082;-61
2024/01/12 03:57:39;;;;;;;0.50;0.50;;;;;;;-1.19;100.00;103242.38;5093682;28;20043;-60
2024/01/12 04:00:05;;;;;;;0.60;0.60;;;;;;;-1.18;100.00;103234.06;5094071;28;20369;-61
2024/01/12 04:02:31;;;;;;;0.60;0.60;;;;;;;-1.20;100.00;103240.56;5093891;28;20036;-61
2024/01/12 04:04:56;;;;;;;0.50;0.50;;;;;;;-1.23;100.00;103235.16;5093379;28;20039;-60
2024/01/12 04:07:22;;;;;;;0.52;0.52;;;;;;;-1.21;100.00;103232.09;5093815;28;20395;-61
2024/01/12 04:09:48;;;;;;;0.50;0.50;;;;;;;-1.24;100.00;103233.34;5093937;28;20093;-61
2024/01/12 04:12:13;;;;;;;0.47;0.47;;;;;;;-1.23;100.00;103230.09;5092746;28;20020;-61
2024/01/12 04:14:38;;;;;;;0.50;0.50;;;;;;;-1.24;100.00;103233.34;5094330;28;20086;-61
2024/01/12 04:17:04;;;;;;;0.40;0.40;;;;;;;-1.25;100.00;103232.47;5093738;28;20376;-60
2024/01/12 04:19:30;;;;;;;0.50;0.50;;;;;;;-1.25;100.00;103240.06;5092714;28;20067;-60
2024/01/12 04:21:55;;;;;;;0.50;0.50;;;;;;;-1.25;100.00;103241.66;5093561;28;20031;-61
2024/01/12 04:24:20;;;;;;;0.60;0.60;;;;;;;-1.27;100.00;103233.91;5093609;28;20050;-60
2024/01/12 04:26:46;;;;;;;0.50;0.50;;;;;;;-1.27;100.00;103235.56;5092805;28;20487;-60
2024/01/12 04:29:11;;;;;;;0.50;0.50;;;;;;;-1.23;100.00;103240.22;5093403;28;20099;-61
2024/01/12 04:31:40;;;;;;;0.40;0.40;;;;;;;-1.25;100.00;103252.72;5093390;28;20028;-60
2024/01/12 04:34:06;;;;;;;0.50;0.50;;;;;;;-1.27;100.00;103251.63;5092759;28;20059;-61
2024/01/12 04:36:31;;;;;;;0.40;0.40;;;;;;;-1.27;100.00;103250.72;5093170;28;20051;-60
2024/01/12 04:38:57;;;;;;;0.50;0.50;;;;;;;-1.24;100.00;103253.59;5092567;28;20070;-61
2024/01/12 04:41:22;;;;;;;0.50;0.50;;;;;;;-1.24;100.00;103253.59;5092150;28;20054;-60
2024/01/12 04:43:48;;;;;;;0.60;0.60;;;;;;;-1.21;100.00;103244.75;5093350;28;20353;-61
2024/01/12 04:46:13;;;;;;;0.60;0.60;;;;;;;-1.22;100.00;103242.03;5092785;28;20024;-61
2024/01/12 04:48:38;;;;;;;0.57;0.57;;;;;;;-1.23;100.00;103247.81;5092721;28;20035;-60
2024/01/12 04:51:04;;;;;;;0.60;0.60;;;;;;;-1.19;100.00;103247.44;5093229;28;20052;-61
2024/01/12 04:53:29;;;;;;;0.50;0.50;;;;;;;-1.24;100.00;103248.53;5092645;28;20044;-61
2024/01/12 04:55:54;;;;;;;0.50;0.50;;;;;;;-1.21;100.00;103243.84;5091714;28;20021;-61
2024/01/12 04:58:20;;;;;;;0.60;0.60;;;;;;;-1.24;100.00;103236.81;5093001;28;20030;-61
2024/01/12 05:00:46;;;;;;;0.60;0.60;;;;;;;-1.25;100.00;103250.19;5093035;28;20024;-61
2024/01/12 05:03:12;;;;;;;0.50;0.50;;;;;;;-1.20;100.00;103245.63;5092337;28;20042;-60
2024/01/12 05:05:37;;;;;;;0.57;0.57;;;;;;;-1.18;100.00;103250.16;5093349;28;20021;-61
2024/01/12 05:08:02;;;;;;;0.52;0.52;;;;;;;-1.17;100.00;103235.88;5092259;28;20032;-60
2024/01/12 05:10:28;;;;;;;0.57;0.57;;;;;;;-1.14;100.00;103235.34;5092733;28;20037;-61
2024/01/12 05:12:53;;;;;;;0.60;0.60;;;;;;;-1.13;100.00;103227.91;5093184;28;20044;-60
2024/01/12 05:15:18;;;;;;;0.50;0.50;;;;;;;-1.10;100.00;103220.66;5091867;28;20024;-61
2024/01/12 05:17:44;;;;;;;0.50;0.50;;;;;;;-1.10;100.00;103217.25;5092629;28;20046;-60
2024/01/12 05:20:10;;;;;;;0.50;0.50;;;;;;;-1.07;100.00;103215.97;5092605;28;20020;-61
2024/01/12 05:22:36;;;;;;;0.40;0.40;;;;;;;-1.06;100.00;103220.31;5092043;28;20377;-61
2024/01/12 05:25:05;;;;;;;0.50;0.50;;;;;;;-1.04;100.00;103220.50;5092511;28;20107;-61
2024/01/12 05:27:30;;;;;;;0.50;0.50;;;;;;;-1.01;100.00;103219.22;5092627;28;20111;-61
2024/01/12 05:29:56;;;;;;;0.60;0.60;;;;;;;-1.01;100.00;103218.28;5091991;28;20107;-60
2024/01/12 05:32:21;;;;;;;0.50;0.50;;;;;;;-1.01;100.00;103214.16;5092523;28;20020;-60
2024/01/12 05:34:46;;;;;;;0.50;0.50;;;;;;;-0.98;100.00;103222.81;5092578;28;20020;-61
2024/01/12 05:37:11;;;;;;;0.50;0.50;;;;;;;-1.03;100.00;103215.59;5091808;28;20025;-61
2024/01/12 05:39:37;;;;;;;0.50;0.50;;;;;;;-1.00;100.00;103218.47;5092444;28;20077;-61
2024/01/12 05:42:02;;;;;;;0.50;0.50;;;;;;;-1.01;100.00;103223.34;5092656;28;20043;-61
2024/01/12 05:44:27;;;;;;;0.52;0.52;;;;;;;-0.99;100.00;103232.03;5091977;28;20431;-61
2024/01/12 05:46:53;;;;;;;0.60;0.60;;;;;;;-0.96;100.00;103231.50;5091328;28;20028;-61
2024/01/12 05:49:18;;;;;;;0.50;0.50;;;;;;;-1.04;100.00;103239.09;5091739;28;20121;-60
2024/01/12 05:51:46;;;;;;;0.60;0.60;;;;;;;-1.04;100.00;103235.69;5091533;28;20036;-61
2024/01/12 05:54:11;;;;;;;0.47;0.47;;;;;;;-1.00;100.00;103241.25;5092208;28;20141;-60
2024/01/12 05:56:36;;;;;;;0.50;0.50;;;;;;;-1.03;100.00;103233.31;5091982;28;20110;-60
2024/01/12 05:59:02;;;;;;;0.60;0.60;;;;;;;-0.98;100.00;103233.84;5092177;28;20074;-61
2024/01/12 06:01:28;;;;;;;0.50;0.50;;;;;;;-1.03;100.00;103240.00;5092412;28;20154;-61
2024/01/12 06:03:53;;;;;;;0.50;0.50;;;;;;;-1.02;100.00;103237.66;5092326;28;20072;-61
2024/01/12 06:06:18;;;;;;;0.50;0.50;;;;;;;-1.01;100.00;103254.66;5091574;28;20103;-60
2024/01/12 06:08:43;;;;;;;0.50;0.50;;;;;;;-1.02;100.00;103247.78;5095660;28;20032;-60
2024/01/12 06:11:09;;;;;;;0.52;0.52;;;;;;;-0.97;100.00;103242.34;5096124;28;20460;-60
2024/01/12 06:13:34;;;;;;;0.50;0.50;;;;;;;-0.97;100.00;103237.28;5095550;28;20044;-60
2024/01/12 06:15:59;;;;;;;0.50;0.50;;;;;;;-1.02;100.00;103241.78;5095111;28;20109;-61
2024/01/12 06:18:25;;;;;;;0.50;0.50;;;;;;;-0.98;100.00;103238.00;5094876;28;20024;-60
2024/01/12 06:20:50;;;;;;;0.50;0.50;;;;;;;-1.00;100.00;103243.78;5096398;28;20099;-60
2024/01/12 06:23:15;;;;;;;0.50;0.50;;;;;;;-0.95;100.00;103248.50;5095672;28;20064;-60
2024/01/12 06:25:41;;;;;;;0.50;0.50;;;;;;;-0.92;100.00;103253.91;5095439;28;20031;-61
2024/01/12 06:28:06;;;;;;;0.60;0.60;;;;;;;-0.87;100.00;103252.78;5095872;28;20028;-61
2024/01/12 06:30:31;;;;;;;0.50;0.50;;;;;;;-0.91;100.00;103250.66;5095537;28;20028;-61
2024/01/12 06:32:58;;;;;;;0.50;0.50;;;;;;;-0.90;100.00;103254.97;5095156;28;20023;-61
2024/01/12 06:35:24;;;;;;;0.50;0.50;;;;;;;-0.88;100.00;103261.09;5095583;28;20031;-61
2024/01/12 06:37:49;;;;;;;0.40;0.40;;;;;;;-0.88;100.00;103251.91;5095607;28;20020;-61
2024/01/12 06:40:14;;;;;;;0.50;0.50;;;;;;;-0.81;100.00;103256.03;5094457;28;20046;-61
2024/01/12 06:42:41;;;;;;;0.50;0.50;;;;;;;-0.79;100.00;103264.69;5095790;28;20111;-61
2024/01/12 06:45:08;;;;;;;0.52;0.52;;;;;;;-0.80;100.00;103267.97;5095489;28;20027;-60
2024/01/12 06:47:34;;;;;;;0.43;0.43;;;;;;;-0.80;100.00;103273.03;5094891;28;20028;-61
2024/01/12 06:50:00;;;;;;;0.45;0.45;;;;;;;-0.77;100.00;103265.78;5095532;28;20020;-60
2024/01/12 06:52:25;;;;;;;0.47;0.47;;;;;;;-0.76;100.00;103272.66;5094922;28;20017;-60
2024/01/12 06:54:50;;;;;;;0.40;0.40;;;;;;;-0.77;100.00;103259.81;5094963;28;20036;-60
2024/01/12 06:57:16;;;;;;;0.40;0.40;;;;;;;-0.75;100.00;103265.94;5094988;28;20016;-60
2024/01/12 06:59:41;;;;;;;0.40;0.40;;;;;;;-0.70;100.00;103258.16;5095320;28;20042;-61
2024/01/12 07:02:07;;;;;;;0.50;0.50;;;;;;;-0.70;100.00;103270.84;5094767;28;20020;-61
2024/01/12 07:04:32;;;;;;;0.45;0.45;;;;;;;-0.71;100.00;103261.41;5094842;28;20102;-61
2024/01/12 07:06:58;;;;;;;0.50;0.50;;;;;;;-0.69;100.00;103259.06;5094925;28;20024;-61
2024/01/12 07:09:23;;;;;;;0.50;0.50;;;;;;;-0.68;100.00;103266.81;5094257;28;20421;-61
2024/01/12 07:11:49;;;;;;;0.40;0.40;;;;;;;-0.67;100.00;103260.16;5095279;28;20059;-61
2024/01/12 07:14:14;;;;;;;0.60;0.60;;;;;;;-0.65;100.00;103255.25;5094646;28;20016;-61
2024/01/12 07:16:40;;;;;;;0.50;0.50;;;;;;;-0.65;100.00;103255.25;5094630;28;20016;-61
2024/01/12 07:19:06;;;;;;;0.50;0.50;;;;;;;-0.65;100.00;103245.13;5093882;28;20035;-61
2024/01/12 07:21:32;;;;;;;0.50;0.50;;;;;;;-0.58;100.00;103242.53;5094382;28;20028;-61
2024/01/12 07:23:58;;;;;;;0.50;0.50;;;;;;;-0.55;100.00;103237.84;5093768;28;20073;-61
2024/01/12 07:26:24;;;;;;;0.40;0.40;;;;;;;-0.56;100.00;103236.03;5091937;28;20024;-61
2024/01/12 07:28:49;;;;;;;0.50;0.50;;;;;;;-0.54;100.00;103239.66;5094015;28;20103;-61
2024/01/12 07:31:15;;;;;;;0.40;0.40;;;;;;;-0.56;100.00;103231.84;5094188;28;20122;-61
2024/01/12 07:33:40;;;;;;;0.50;0.50;;;;;;;-0.50;100.00;103241.78;5094569;28;20027;-60
2024/01/12 07:36:06;;;;;;;0.50;0.50;;;;;;;-0.50;100.00;103246.84;5093682;28;20426;-60
2024/01/12 07:38:31;;;;;;;0.40;0.40;;;;;;;-0.50;100.00;103241.78;5094114;28;20032;-61
2024/01/12 07:40:56;;;;;;;0.40;0.40;;;;;;;-0.50;100.00;103242.69;5094108;28;20114;-60
2024/01/12 07:43:22;;;;;;;0.50;0.50;;;;;;;-0.50;100.00;103246.84;5093414;28;20031;-60
2024/01/12 07:45:47;;;;;;;0.47;0.47;;;;;;;-0.50;100.00;103246.84;5094234;28;20383;-60
2024/01/12 07:48:12;;;;;;;0.40;0.40;;;;;;;-0.46;100.00;103243.94;5093877;28;20024;-60
2024/01/12 07:50:38;;;;;;;0.40;0.40;;;;;;;-0.46;100.00;103249.00;5093724;28;20048;-60
2024/01/12 07:53:03;;;;;;;0.50;0.50;;;;;;;-0.45;100.00;103240.69;5094139;28;20121;-60
2024/01/12 07:55:29;;;;;;;0.47;0.47;;;;;;;-0.48;100.00;103235.25;5093724;28;20623;-60
2024/01/12 07:57:54;;;;;;;0.50;0.50;;;;;;;-0.43;100.00;103233.25;5093594;28;20028;-60
2024/01/12 08:00:20;;;;;;;0.50;0.50;;;;;;;-0.44;100.00;103229.81;5093839;28;20038;-60
2024/01/12 08:02:45;;;;;;;0.50;0.50;;;;;;;-0.43;100.00;103229.06;5093929;28;20069;-60
2024/01/12 08:05:11;;;;;;;0.50;0.50;;;;;;;-0.38;100.00;103233.03;5093034;28;20414;-60
2024/01/12 08:07:37;;;;;;;0.43;0.43;;;;;;;-0.34;100.00;103231.75;5093831;28;20053;-60
2024/01/12 08:10:03;;;;;;;0.30;0.30;;;;;;;-0.33;100.00;103243.69;5093799;28;20020;-60
2024/01/12 08:12:29;;;;;;;0.47;0.47;;;;;;;-0.34;100.00;103245.31;5093313;28;20031;-61
2024/01/12 08:14:54;;;;;;;0.50;0.50;;;;;;;-0.31;100.00;103246.38;5093758;28;20513;-61
2024/01/12 08:17:20;;;;;;;0.50;0.50;;;;;;;-0.31;100.00;103242.25;5093404;28;20064;-61
2024/01/12 08:19:46;;;;;;;0.50;0.50;;;;;;;-0.29;100.00;103242.41;5093139;28;20039;-60
2024/01/12 08:22:12;;;;;;;0.50;0.50;;;;;;;-0.26;100.00;103245.28;5093243;28;20032;-60
2024/01/12 08:24:38;;;;;;;0.40;0.40;;;;;;;-0.26;100.00;103250.34;5093478;28;20027;-60
2024/01/12 08:27:03;;;;;;;0.50;0.50;;;;;;;-0.27;100.00;103240.91;5092739;28;20403;-61
2024/01/12 08:29:28;;;;;;;0.50;0.50;;;;;;;-0.25;100.00;103247.06;5093435;28;20039;-61
2024/01/12 08:31:54;;;;;;;0.50;0.50;;;;;;;-0.26;100.00;103252.88;5093130;28;20480;-60
2024/01/12 08:34:19;;;;;;;0.40;0.40;;;;;;;-0.28;100.00;103255.25;5092269;28;20032;-60
2024/01/12 08:36:44;;;;;;;0.40;0.40;;;;;;;-0.27;100.00;103266.25;5093403;28;20039;-60
2024/01/12 08:39:09;;;;;;;0.50;0.50;;;;;;;-0.23;100.00;103258.31;5092532;28;20525;-61
2024/01/12 08:41:36;;;;;;;0.40;0.40;;;;;;;-0.19;100.00;103265.50;5093056;28;20052;-60
2024/01/12 08:44:01;;;;;;;0.50;0.50;;;;;;;-0.18;100.00;103267.31;5093321;28;20026;-60
2024/01/12 08:46:26;;;;;;;0.50;0.50;;;;;;;-0.15;100.00;103269.31;5092301;28;20032;-61
2024/01/12 08:48:54;;;;;;;0.50;0.50;;;;;;;-0.16;100.00;103260.78;5093148;28;20038;-61
2024/01/12 08:51:20;;;;;;;0.40;0.40;;;;;;;-0.09;100.00;103260.75;5092572;28;20028;-61
2024/01/12 08:53:45;;;;;;;0.50;0.50;;;;;;;-0.10;100.00;103245.38;5092840;28;20080;-61
2024/01/12 08:56:11;;;;;;;0.40;0.40;;;;;;;-0.06;100.00;103253.47;5092952;28;20062;-60
2024/01/12 08:58:37;;;;;;;0.45;0.45;;;;;;;-0.02;100.00;103255.59;5093142;28;20134;-61
2024/01/12 09:01:03;;;;;;;0.40;0.40;;;;;;;0.02;100.00;103255.97;5092657;28;20078;-61
2024/01/12 09:03:28;;;;;;;0.40;0.40;;;;;;;0.07;100.00;103254.84;5092916;28;20768;-60
2024/01/12 09:05:54;;;;;;;0.50;0.50;;;;;;;0.15;100.00;103261.66;5092884;28;20027;-60
2024/01/12 09:08:19;;;;;;;0.50;0.50;;;;;;;0.23;100.00;103257.44;5092476;28;20349;-60
2024/01/12 09:10:44;;;;;;;0.50;0.50;;;;;;;0.29;100.00;103247.97;5093219;28;20063;-61
2024/01/12 09:13:10;;;;;;;0.40;0.40;;;;;;;0.39;100.00;103249.84;5092553;28;20030;-60
2024/01/12 09:15:35;;;;;;;0.43;0.43;;;;;;;0.36;100.00;103244.47;5092470;28;20104;-61
2024/01/12 09:18:00;;;;;;;0.40;0.40;;;;;;;0.40;100.00;103252.59;5093071;28;20043;-60
2024/01/12 09:20:25;;;;;;;0.45;0.45;;;;;;;0.41;100.00;103251.81;5092304;28;20024;-60
2024/01/12 09:22:51;;;;;;;0.50;0.50;;;;;;;0.52;100.00;103259.72;5092429;28;20028;-60
2024/01/12 09:25:16;;;;;;;0.50;0.50;;;;;;;0.52;100.00;103257.19;5092683;28;20472;-61
2024/01/12 09:27:41;;;;;;;0.40;0.40;;;;;;;0.56;100.00;103245.00;5092755;28;20020;-60
2024/01/12 09:30:07;;;;;;;0.40;0.40;;;;;;;0.57;100.00;103251.88;5092383;28;20017;-60
2024/01/12 09:32:32;;;;;;;0.30;0.30;;;;;;;0.60;100.00;103253.84;5092530;28;20028;-61
2024/01/12 09:34:58;;;;;;;0.40;0.40;;;;;;;0.63;100.00;103252.56;5092535;28;20020;-61
2024/01/12 09:37:23;;;;;;;0.40;0.40;;;;;;;0.68;100.00;103259.75;5091818;28;20051;-61
2024/01/12 09:39:49;;;;;;;0.50;0.50;;;;;;;0.71;100.00;103252.47;5092449;28;20020;-61
2024/01/12 09:42:17;;;;;;;0.40;0.40;;;;;;;0.72;100.00;103251.75;5093225;28;20108;-60
2024/01/12 09:44:47;;;;;;;0.45;0.45;;;;;;;0.74;100.00;103255.38;5096673;28;20146;-60
2024/01/12 09:47:12;;;;;;;0.50;0.50;;;;;;;0.73;100.00;103245.94;5096401;28;20499;-60
2024/01/12 09:49:38;;;;;;;0.40;0.40;;;;;;;0.74;100.00;103247.75;5095819;28;20024;-60
2024/01/12 09:52:07;;;;;;;0.40;0.40;;;;;;;0.75;100.00;103244.44;5096775;28;20093;-60
2024/01/12 09:54:34;;;;;;;0.40;0.40;;;;;;;0.78;100.00;103242.25;5096219;28;20081;-60
2024/01/12 09:57:00;;;;;;;0.43;0.43;;;;;;;0.79;100.00;103244.06;5095959;28;20384;-60
2024/01/12 09:59:27;;;;;;;0.43;0.43;;;;;;;0.86;100.00;103240.53;5096180;28;20435;-60
2024/01/12 10:01:53;;;;;;;0.40;0.40;;;;;;;0.89;100.00;103254.47;5096167;28;20031;-61
2024/01/12 10:04:18;;;;;;;0.43;0.43;;;;;;;0.98;100.00;103245.31;5095451;28;20277;-61
2024/01/12 10:06:44;;;;;;;0.40;0.40;;;;;;;0.94;100.00;103243.19;5096300;28;20059;-61
2024/01/12 10:09:09;;;;;;;0.40;0.40;;;;;;;1.01;100.00;103244.72;5096019;28;20050;-60
2024/01/12 10:11:35;;;;;;;0.45;0.45;;;;;;;1.05;100.00;103240.88;5095851;28;20476;-60
2024/01/12 10:14:00;;;;;;;0.47;0.47;;;;;;;1.09;100.00;103245.56;5096292;28;20031;-60
2024/01/12 10:16:31;;;;;;;0.50;0.50;;;;;;;1.11;100.00;103249.13;5095558;28;20065;-60
2024/01/12 10:19:00;;;;;;;0.50;0.50;;;;;;;1.10;100.00;103245.69;5095654;28;20024;-60
2024/01/12 10:21:26;;;;;;;0.50;0.50;;;;;;;1.15;100.00;103256.38;5095853;28;20023;-60
2024/01/12 10:24:03;;;;;;;0.40;0.40;;;;;;;1.22;100.00;103261.34;5095884;28;20027;-60
2024/01/12 10:26:28;;;;;;;0.40;0.40;;;;;;;1.27;100.00;103262.75;5095456;28;20051;-60
2024/01/12 10:28:53;;;;;;;0.40;0.40;;;;;;;1.31;100.00;103254.69;5096041;28;20032;-60
2024/01/12 10:31:19;;;;;;;0.40;0.40;;;;;;;1.35;100.00;103257.59;5095320;28;20028;-60
2024/01/12 10:33:46;;;;;;;0.40;0.40;;;;;;;1.36;100.00;103256.84;5095255;28;20036;-60
2024/01/12 10:36:24;;;;;;;0.40;0.40;;;;;;;1.39;100.00;103252.06;5095559;28;20039;-60
2024/01/12 10:38:50;;;;;;;0.40;0.40;;;;;;;1.39;100.00;103244.44;5095095;28;20027;-60
2024/01/12 10:41:20;;;;;;;0.40;0.40;;;;;;;1.43;100.00;103236.41;5095236;28;20396;-60
2024/01/12 10:43:50;;;;;;;0.50;0.50;;;;;;;1.43;100.00;103232.25;5095395;28;20127;-60
2024/01/12 10:46:28;;;;;;;0.40;0.40;;;;;;;1.45;100.00;103232.41;5095001;28;20081;-60
2024/01/12 10:49:17;;;;;;;0.50;0.50;;;;;;;1.54;100.00;103240.09;5095733;28;20028;-60
2024/01/12 10:52:04;;;;;;;0.30;0.30;;;;;;;1.51;100.00;103234.66;5095370;28;20107;-60
2024/01/12 10:55:02;;;;;;;0.40;0.40;;;;;;;1.49;100.00;103239.59;5093253;28;20391;-60
2024/01/12 10:57:29;;;;;;;0.50;0.50;;;;;;;1.47;100.00;103235.97;5095246;28;20025;-60
2024/01/12 10:59:56;;;;;;;0.40;0.40;;;;;;;1.40;100.00;103236.97;5094610;28;20498;-60
2024/01/12 11:02:21;;;;;;;0.40;0.40;;;;;;;1.53;100.00;103231.56;5095103;28;20100;-60
2024/01/12 11:04:48;;;;;;;0.30;0.30;;;;;;;1.50;100.00;103231.25;5095164;28;20430;-60
2024/01/12 11:07:14;;;;;;;0.40;0.40;;;;;;;1.55;100.00;103229.16;5094488;28;20024;-60
2024/01/12 11:09:40;;;;;;;0.50;0.50;;;;;;;1.59;100.00;103226.22;5095053;28;20024;-60
2024/01/12 11:12:11;;;;;;;0.47;0.47;;;;;;;1.59;100.00;103229.66;5094972;28;20028;-60
2024/01/12 11:14:38;;;;;;;0.50;0.50;;;;;;;1.61;100.00;103225.66;5094512;28;20028;-60